Weather at El Dormitorio Airport

Public forecast

Using degrees Celsius for public forecast. Weather courtesy of forecast.io.

Closest aviation weather report (METAR) to El Dormitorio Airport

Closest report is Frank Pais International Airport, 42.4 nm (78.5 km) E.

2024/06/21 15:50 (retrieved 56 minutes ago)

MUHG 211550Z 09014KT 050V110 9000 SCT025 BKN195 32/24 Q1016

Closest aviation forecast (TAF) to El Dormitorio Airport

Closest forecast is Frank Pais International Airport, 42.4 nm (78.5 km) E.

2024/06/21 12:03 (retrieved 5 hours ago)

TAF MUHG 211100Z 2112/2212 07008KT 9000 SCT030 BECMG 2114/2115 08013KT TEMPO 2117/2120 SCT020TCU BECMG 2201/2203 09008KT